createdAt,value
2023-05-03T00:01:17.599Z,99102.06
2023-05-03T00:03:53.007Z,99092.28
2023-05-03T00:06:25.947Z,99085.78
2023-05-03T00:08:57.920Z,99099.03
2023-05-03T00:11:30.592Z,99081.00
2023-05-03T00:14:02.698Z,99097.69
2023-05-03T00:16:35.606Z,99090.41
2023-05-03T00:19:10.707Z,99099.03
2023-05-03T00:21:50.535Z,99089.63
2023-05-03T00:24:22.469Z,99086.34
2023-05-03T00:26:55.444Z,99092.91
2023-05-03T00:29:27.918Z,99093.03
2023-05-03T00:32:00.655Z,99089.75
2023-05-03T00:34:32.601Z,99094.34
2023-05-03T00:37:06.097Z,99093.69
2023-05-03T00:39:38.014Z,99100.91
2023-05-03T00:42:10.809Z,99101.84
2023-05-03T00:44:43.063Z,99103.03
2023-05-03T00:47:17.152Z,99097.31
2023-05-03T00:49:49.498Z,99096.19
2023-05-03T00:52:22.147Z,99098.78
2023-05-03T00:54:54.180Z,99098.66
2023-05-03T00:57:28.863Z,99094.34
2023-05-03T01:00:01.417Z,99080.47
2023-05-03T01:02:34.749Z,99081.09
2023-05-03T01:05:07.735Z,99083.78
2023-05-03T01:07:56.380Z,99084.28
2023-05-03T01:10:42.602Z,99085.00
2023-05-03T01:13:19.788Z,99089.34
2023-05-03T01:16:07.089Z,99071.22
2023-05-03T01:18:44.573Z,99071.88
2023-05-03T01:21:20.585Z,99083.06
2023-05-03T01:24:14.662Z,99071.16
2023-05-03T01:26:47.856Z,99067.03
2023-05-03T01:29:20.929Z,99069.88
2023-05-03T01:32:07.485Z,99062.50
2023-05-03T01:35:06.062Z,99063.22
2023-05-03T01:37:38.275Z,99062.56
2023-05-03T01:40:13.398Z,99064.44
2023-05-03T01:42:46.004Z,99065.09
2023-05-03T01:45:20.694Z,99070.00
2023-05-03T01:47:53.056Z,99064.19
2023-05-03T01:50:25.105Z,99063.75
2023-05-03T01:52:57.936Z,99073.66
2023-05-03T01:55:29.823Z,99065.25
2023-05-03T01:58:02.929Z,99060.53
2023-05-03T02:00:35.525Z,99067.91
2023-05-03T02:03:07.966Z,99059.25
2023-05-03T02:05:40.388Z,99062.56
2023-05-03T02:08:12.493Z,99062.56
2023-05-03T02:10:45.389Z,99068.94
2023-05-03T02:13:17.722Z,99075.34
2023-05-03T02:15:50.637Z,99080.56
2023-05-03T02:18:22.513Z,99074.91
2023-05-03T02:20:58.138Z,99070.84
2023-05-03T02:23:30.405Z,99067.28
2023-05-03T02:26:03.329Z,99061.59
2023-05-03T02:28:35.253Z,99051.28
2023-05-03T02:31:09.241Z,99057.09
2023-05-03T02:33:42.257Z,99051.06
2023-05-03T02:36:14.997Z,99054.00
2023-05-03T02:38:49.819Z,99053.28
2023-05-03T02:41:24.086Z,99048.72
2023-05-03T02:43:56.636Z,99043.56
2023-05-03T02:46:32.007Z,99046.50
2023-05-03T02:49:04.905Z,99047.44
2023-05-03T02:51:38.142Z,99051.50
2023-05-03T02:54:11.338Z,99054.22
2023-05-03T02:56:44.557Z,99052.25
2023-05-03T02:59:16.475Z,99055.03
2023-05-03T03:01:51.675Z,99053.53
2023-05-03T03:04:24.107Z,99049.66
2023-05-03T03:06:57.518Z,99057.44
2023-05-03T03:09:29.986Z,99065.94
2023-05-03T03:12:04.825Z,99061.91
2023-05-03T03:14:37.967Z,99063.91
2023-05-03T03:17:11.620Z,99066.50
2023-05-03T03:19:44.619Z,99063.06
2023-05-03T03:22:18.158Z,99061.50
2023-05-03T03:24:52.652Z,99064.69
2023-05-03T03:27:25.189Z,99061.28
2023-05-03T03:29:57.096Z,99063.16
2023-05-03T03:32:30.613Z,99061.94
2023-05-03T03:35:05.664Z,99062.56
2023-05-03T03:37:40.380Z,99069.09
2023-05-03T03:40:12.813Z,99070.44
2023-05-03T03:42:46.303Z,99067.16
2023-05-03T03:45:18.710Z,99080.72
2023-05-03T03:47:53.582Z,99068.22
2023-05-03T03:50:28.654Z,99075.59
2023-05-03T03:53:01.908Z,99062.75
2023-05-03T03:55:34.087Z,99068.88
2023-05-03T03:58:07.134Z,99072.69
2023-05-03T04:00:40.077Z,99064.75
2023-05-03T04:03:19.304Z,99071.19
2023-05-03T04:05:53.533Z,99071.03
2023-05-03T04:08:27.445Z,99073.97
2023-05-03T04:10:59.770Z,99079.09
2023-05-03T04:13:32.740Z,99081.78
2023-05-03T04:16:08.956Z,99088.81
2023-05-03T04:18:43.060Z,99084.75
2023-05-03T04:21:15.103Z,99076.47
2023-05-03T04:23:48.682Z,99081.78
2023-05-03T04:26:31.145Z,99074.41
2023-05-03T04:29:20.396Z,99088.81
2023-05-03T04:31:53.286Z,99065.56
2023-05-03T04:34:26.321Z,99064.28
2023-05-03T04:37:00.917Z,99062.22
2023-05-03T04:39:34.194Z,99068.25
2023-05-03T04:42:07.806Z,99064.91
2023-05-03T04:44:40.722Z,99064.06
2023-05-03T04:47:12.810Z,99066.34
2023-05-03T04:49:47.582Z,99073.69
2023-05-03T04:52:21.060Z,99076.19
2023-05-03T04:54:54.765Z,99073.69
2023-05-03T04:57:28.610Z,99067.63
2023-05-03T05:00:03.524Z,99070.22
2023-05-03T05:02:36.575Z,99064.97
2023-05-03T05:05:11.509Z,99063.59
2023-05-03T05:07:44.213Z,99070.25
2023-05-03T05:10:17.513Z,99080.75
2023-05-03T05:12:50.950Z,99076.25
2023-05-03T05:15:23.460Z,99081.84
2023-05-03T05:17:57.394Z,99083.69
2023-05-03T05:20:29.882Z,99088.31
2023-05-03T05:23:03.814Z,99086.28
2023-05-03T05:25:37.110Z,99085.69
2023-05-03T05:28:11.852Z,99088.22
2023-05-03T05:30:45.037Z,99084.91
2023-05-03T05:33:19.054Z,99084.09
2023-05-03T05:35:53.050Z,99085.31
2023-05-03T05:38:27.793Z,99082.22
2023-05-03T05:41:04.579Z,99087.56
2023-05-03T05:43:39.008Z,99090.84
2023-05-03T05:46:14.236Z,99092.81
2023-05-03T05:48:47.044Z,99080.84
2023-05-03T05:51:20.926Z,99085.78
2023-05-03T05:53:54.285Z,99079.16
2023-05-03T05:56:26.585Z,99071.13
2023-05-03T05:59:01.553Z,99068.53
2023-05-03T06:01:34.355Z,99081.47
2023-05-03T06:04:08.993Z,99083.66
2023-05-03T06:06:42.047Z,99077.19
2023-05-03T06:09:24.280Z,99084.47
2023-05-03T06:12:03.898Z,99079.41
2023-05-03T06:14:46.274Z,99073.38
2023-05-03T06:17:25.548Z,99074.66
2023-05-03T06:20:01.769Z,99072.28
2023-05-03T06:22:35.322Z,99078.22
2023-05-03T06:25:07.838Z,99076.28
2023-05-03T06:27:42.575Z,99079.13
2023-05-03T06:30:15.677Z,99065.47
2023-05-03T06:32:49.029Z,99071.50
2023-05-03T06:35:23.186Z,99070.84
2023-05-03T06:37:56.044Z,99073.56
2023-05-03T06:40:28.128Z,99072.44
2023-05-03T06:43:02.370Z,99068.16
2023-05-03T06:45:43.334Z,99065.13
2023-05-03T06:48:18.480Z,99072.31
2023-05-03T06:50:50.706Z,99063.28
2023-05-03T06:53:23.966Z,99056.22
2023-05-03T06:55:55.915Z,99047.47
2023-05-03T06:58:29.141Z,99055.13
2023-05-03T07:01:02.747Z,99050.09
2023-05-03T07:03:40.123Z,99047.28
2023-05-03T07:06:16.090Z,99049.72
2023-05-03T07:08:50.410Z,99045.66
2023-05-03T07:11:25.747Z,99046.53
2023-05-03T07:13:58.821Z,99036.16
2023-05-03T07:16:31.151Z,99047.34
2023-05-03T07:19:04.996Z,99029.06
2023-05-03T07:21:37.558Z,99025.38
2023-05-03T07:24:12.766Z,99021.28
2023-05-03T07:26:48.501Z,99010.47
2023-05-03T07:29:22.243Z,99012.66
2023-05-03T07:31:56.913Z,99014.81
2023-05-03T07:34:28.919Z,99014.31
2023-05-03T07:37:02.562Z,99012.78
2023-05-03T07:39:35.125Z,99008.41
2023-05-03T07:42:09.160Z,99005.47
2023-05-03T07:44:41.125Z,99009.81
2023-05-03T07:47:16.231Z,99011.00
2023-05-03T07:49:50.769Z,99012.81
2023-05-03T07:52:25.727Z,99007.81
2023-05-03T07:54:59.554Z,99021.00
2023-05-03T07:57:36.142Z,99020.47
2023-05-03T08:00:10.948Z,99025.31
2023-05-03T08:02:47.776Z,99023.56
2023-05-03T08:08:36.535Z,99028.19
2023-05-03T08:11:12.034Z,99023.50
2023-05-03T08:13:43.922Z,99024.06
2023-05-03T08:16:17.861Z,99024.59
2023-05-03T08:18:50.459Z,99025.19
2023-05-03T08:21:25.592Z,99027.75
2023-05-03T08:23:58.560Z,99030.69
2023-05-03T08:26:31.691Z,99018.50
2023-05-03T08:29:05.092Z,99020.13
2023-05-03T08:31:37.937Z,99003.84
2023-05-03T08:34:12.451Z,99020.38
2023-05-03T08:36:45.430Z,99012.81
2023-05-03T08:39:18.804Z,99015.38
2023-05-03T08:41:53.187Z,99021.34
2023-05-03T08:44:30.114Z,99021.34
2023-05-03T08:47:02.669Z,99031.19
2023-05-03T08:49:38.376Z,99028.47
2023-05-03T08:52:13.992Z,99018.09
2023-05-03T08:54:47.502Z,99028.34
2023-05-03T08:57:22.983Z,99013.78
2023-05-03T09:00:00.681Z,99027.34
2023-05-03T09:02:35.336Z,99021.16
2023-05-03T09:05:16.551Z,99020.22
2023-05-03T09:08:08.019Z,99012.81
2023-05-03T09:10:42.651Z,99007.81
2023-05-03T09:13:15.813Z,99020.56
2023-05-03T09:15:57.774Z,99018.44
2023-05-03T09:18:32.120Z,99019.56
2023-05-03T09:21:06.730Z,99016.31
2023-05-03T09:23:41.438Z,99015.88
2023-05-03T09:26:31.385Z,99017.94
2023-05-03T09:29:05.389Z,99010.13
2023-05-03T09:31:58.768Z,99003.84
2023-05-03T09:34:32.937Z,99010.06
2023-05-03T09:37:04.931Z,99001.56
2023-05-03T09:39:38.812Z,99002.28
2023-05-03T09:42:17.355Z,98994.22
2023-05-03T09:44:54.488Z,98998.41
2023-05-03T09:47:31.798Z,99004.00
2023-05-03T09:50:07.685Z,98992.25
2023-05-03T09:52:40.338Z,98997.53
2023-05-03T09:55:12.722Z,98984.75
2023-05-03T09:57:48.052Z,98988.28
2023-05-03T10:00:21.057Z,98976.63
2023-05-03T10:02:58.206Z,98981.25
2023-05-03T10:05:33.774Z,98985.38
2023-05-03T10:08:06.430Z,98984.09
2023-05-03T10:10:42.376Z,98970.59
2023-05-03T10:13:15.146Z,98969.50
2023-05-03T10:15:50.520Z,98962.59
2023-05-03T10:18:26.367Z,98973.72
2023-05-03T10:21:15.447Z,98980.91
2023-05-03T10:24:14.158Z,98963.63
2023-05-03T10:26:48.455Z,98961.50
2023-05-03T10:29:35.981Z,98963.44
2023-05-03T10:32:43.551Z,98952.13
2023-05-03T10:35:17.325Z,98946.66
2023-05-03T10:37:52.196Z,98940.50
2023-05-03T10:40:24.490Z,98944.44
2023-05-03T10:42:57.043Z,98938.31
2023-05-03T10:45:29.599Z,98937.38
2023-05-03T10:48:11.273Z,98931.63
2023-05-03T10:50:43.712Z,98920.56
2023-05-03T10:53:40.434Z,98918.59
2023-05-03T10:56:15.610Z,98917.03
2023-05-03T10:58:56.973Z,98913.16
2023-05-03T11:01:29.850Z,98904.16
2023-05-03T11:04:33.076Z,98901.31
2023-05-03T11:07:05.074Z,98902.78
2023-05-03T11:09:37.674Z,98893.50
2023-05-03T11:12:12.361Z,98886.75
2023-05-03T11:14:45.054Z,98883.09
2023-05-03T11:17:17.207Z,98881.44
2023-05-03T11:19:50.351Z,98874.03
2023-05-03T11:22:22.283Z,98870.47
2023-05-03T11:24:54.573Z,98869.41
2023-05-03T11:27:26.566Z,98872.72
2023-05-03T11:29:59.840Z,98874.53
2023-05-03T11:32:32.767Z,98873.81
2023-05-03T11:35:07.998Z,98868.97
2023-05-03T11:37:39.944Z,98868.63
2023-05-03T11:40:19.523Z,98867.69
2023-05-03T11:42:58.366Z,98857.88
2023-05-03T11:45:44.886Z,98856.66
2023-05-03T11:48:17.650Z,98859.72
2023-05-03T11:50:55.724Z,98861.66
2023-05-03T11:53:27.866Z,98856.00
2023-05-03T11:56:01.170Z,98850.38
2023-05-03T11:58:33.166Z,98852.44
2023-05-03T12:01:05.887Z,98849.53
2023-05-03T12:03:37.883Z,98847.53
2023-05-03T12:06:11.838Z,98840.94
2023-05-03T12:08:45.168Z,98829.97
2023-05-03T12:11:18.583Z,98824.06
2023-05-03T12:13:59.973Z,98826.91
2023-05-03T12:16:52.382Z,98820.66
2023-05-03T12:19:33.439Z,98823.81
2023-05-03T12:22:26.067Z,98815.56
2023-05-03T12:24:59.297Z,98815.66
2023-05-03T12:27:32.793Z,98811.69
2023-05-03T12:30:07.991Z,98808.22
2023-05-03T12:32:44.389Z,98809.75
2023-05-03T12:35:20.971Z,98796.78
2023-05-03T12:40:34.389Z,98805.94
2023-05-03T12:43:07.804Z,98791.69
2023-05-03T12:45:41.113Z,98803.03
2023-05-03T12:48:14.289Z,98796.72
2023-05-03T12:50:46.454Z,98797.81
2023-05-03T12:53:19.675Z,98790.91
2023-05-03T12:55:52.404Z,98785.25
2023-05-03T12:58:49.836Z,98786.38
2023-05-03T13:02:05.039Z,98774.78
2023-05-03T13:06:58.081Z,98774.16
2023-05-03T13:10:12.577Z,98781.66
2023-05-03T13:12:25.578Z,98773.44
2023-05-03T13:14:58.300Z,98763.53
2023-05-03T13:17:31.606Z,98767.56
2023-05-03T13:20:08.542Z,98768.00
2023-05-03T13:22:40.525Z,98757.72
2023-05-03T13:25:13.659Z,98755.78
2023-05-03T13:27:47.045Z,98739.44
2023-05-03T13:30:26.108Z,98728.69
2023-05-03T13:32:58.464Z,98740.53
2023-05-03T13:35:31.257Z,98737.22
2023-05-03T13:38:03.145Z,98740.28
2023-05-03T13:40:35.498Z,98739.16
2023-05-03T13:43:07.681Z,98724.84
2023-05-03T13:45:40.066Z,98721.03
2023-05-03T13:48:17.585Z,98708.13
2023-05-03T13:50:51.220Z,98714.03
2023-05-03T13:53:23.266Z,98714.06
2023-05-03T13:55:56.154Z,98704.53
2023-05-03T13:58:28.030Z,98714.69
2023-05-03T14:01:00.391Z,98700.22
2023-05-03T14:03:33.948Z,98704.03
2023-05-03T14:06:08.667Z,98707.81
2023-05-03T14:08:41.516Z,98720.63
2023-05-03T14:11:18.906Z,98719.41
2023-05-03T14:13:56.846Z,98717.81
2023-05-03T14:16:40.756Z,98705.59
2023-05-03T14:19:14.987Z,98706.66
2023-05-03T14:21:50.606Z,98709.91
2023-05-03T14:24:22.886Z,98697.81
2023-05-03T14:26:55.634Z,98695.13
2023-05-03T14:29:27.608Z,98689.13
2023-05-03T14:32:00.051Z,98694.97
2023-05-03T14:34:32.496Z,98693.69
2023-05-03T14:37:04.880Z,98693.66
2023-05-03T14:39:36.825Z,98685.72
2023-05-03T14:42:11.142Z,98687.63
2023-05-03T14:44:43.023Z,98692.97
2023-05-03T14:47:15.458Z,98689.50
2023-05-03T14:49:47.406Z,98687.53
2023-05-03T14:52:19.751Z,98685.81
2023-05-03T14:54:52.630Z,98677.91
2023-05-03T14:57:25.009Z,98684.88
2023-05-03T14:59:56.966Z,98686.44
2023-05-03T15:02:29.511Z,98689.66
2023-05-03T15:05:03.588Z,98690.03
2023-05-03T15:07:35.921Z,98687.41
2023-05-03T15:10:10.003Z,98688.06
2023-05-03T15:12:42.583Z,98685.72
2023-05-03T15:15:15.785Z,98679.69
2023-05-03T15:17:48.344Z,98674.50
2023-05-03T15:20:20.453Z,98681.25
2023-05-03T15:22:52.857Z,98673.91
2023-05-03T15:25:24.735Z,98683.00
2023-05-03T15:27:57.487Z,98671.06
2023-05-03T15:30:29.425Z,98667.25
2023-05-03T15:33:02.429Z,98666.94
2023-05-03T15:35:39.120Z,98668.34
2023-05-03T15:38:11.440Z,98677.88
2023-05-03T15:40:43.553Z,98682.19
2023-05-03T15:43:15.877Z,98683.31
2023-05-03T15:45:47.878Z,98681.84
2023-05-03T15:48:20.239Z,98682.44
2023-05-03T15:50:52.334Z,98671.44
2023-05-03T15:53:25.836Z,98674.19
2023-05-03T15:55:58.218Z,98677.44
2023-05-03T15:58:31.321Z,98666.41
2023-05-03T16:01:04.086Z,98678.78
2023-05-03T16:03:36.569Z,98671.22
2023-05-03T16:06:09.526Z,98663.69
2023-05-03T16:08:42.453Z,98658.94
2023-05-03T16:11:15.031Z,98667.25
2023-05-03T16:13:47.288Z,98665.69
2023-05-03T16:16:19.234Z,98669.19
2023-05-03T16:18:51.671Z,98667.53
2023-05-03T16:21:23.595Z,98678.38
2023-05-03T16:23:56.638Z,98674.97
2023-05-03T16:26:28.779Z,98671.88
2023-05-03T16:29:01.672Z,98661.16
2023-05-03T16:31:33.636Z,98669.03
2023-05-03T16:34:06.259Z,98660.88
2023-05-03T16:36:48.261Z,98652.66
2023-05-03T16:39:20.788Z,98657.00
2023-05-03T16:41:52.846Z,98658.94
2023-05-03T16:44:25.387Z,98651.63
2023-05-03T16:46:57.357Z,98659.41
2023-05-03T16:49:34.588Z,98659.03
2023-05-03T16:52:06.732Z,98661.03
2023-05-03T16:54:39.090Z,98643.72
2023-05-03T16:57:10.995Z,98660.31
2023-05-03T16:59:43.377Z,98657.75
2023-05-03T17:02:15.350Z,98660.88
2023-05-03T17:04:47.742Z,98658.84
2023-05-03T17:07:20.024Z,98666.75
2023-05-03T17:09:53.014Z,98661.59
2023-05-03T17:12:25.392Z,98661.78
2023-05-03T17:14:58.117Z,98670.09
2023-05-03T17:17:32.554Z,98678.53
2023-05-03T17:20:05.992Z,98667.97
2023-05-03T17:22:38.132Z,98665.84
2023-05-03T17:25:10.930Z,98668.88
2023-05-03T17:27:43.907Z,98678.72
2023-05-03T17:30:17.773Z,98686.75
2023-05-03T17:32:51.549Z,98682.63
2023-05-03T17:35:25.237Z,98687.13
2023-05-03T17:37:58.130Z,98688.06
2023-05-03T17:40:30.460Z,98696.13
2023-05-03T17:43:02.599Z,98692.78
2023-05-03T17:45:34.944Z,98699.00
2023-05-03T17:48:07.450Z,98701.16
2023-05-03T17:50:40.303Z,98699.34
2023-05-03T17:53:12.256Z,98696.47
2023-05-03T17:58:37.888Z,98713.78
2023-05-03T18:01:11.370Z,98718.53
2023-05-03T18:03:43.600Z,98717.28
2023-05-03T18:06:16.729Z,98726.13
2023-05-03T18:08:52.335Z,98725.09
2023-05-03T18:11:26.346Z,98731.84
2023-05-03T18:13:59.812Z,98730.16
2023-05-03T18:16:33.129Z,98726.44
2023-05-03T18:19:05.312Z,98730.50
2023-05-03T18:21:39.306Z,98734.03
2023-05-03T18:24:11.878Z,98739.53
2023-05-03T18:26:45.005Z,98742.78
2023-05-03T18:29:16.938Z,98742.59
2023-05-03T18:31:50.852Z,98739.84
2023-05-03T18:34:24.510Z,98734.09
2023-05-03T18:36:56.850Z,98740.63
2023-05-03T18:39:29.897Z,98732.41
2023-05-03T18:42:01.814Z,98734.78
2023-05-03T18:44:36.177Z,98733.63
2023-05-03T18:47:10.223Z,98743.75
2023-05-03T18:49:47.339Z,98738.06
2023-05-03T18:52:23.207Z,98747.19
2023-05-03T18:54:56.074Z,98742.81
2023-05-03T18:57:28.332Z,98741.47
2023-05-03T19:00:02.704Z,98757.19
2023-05-03T19:02:35.992Z,98759.41
2023-05-03T19:05:10.853Z,98755.63
2023-05-03T19:07:48.147Z,98760.34
2023-05-03T19:10:21.399Z,98752.59
2023-05-03T19:12:53.719Z,98757.44
2023-05-03T19:15:27.452Z,98759.22
2023-05-03T19:17:59.889Z,98762.75
2023-05-03T19:20:32.167Z,98759.00
2023-05-03T19:23:05.593Z,98758.38
2023-05-03T19:25:37.970Z,98754.78
2023-05-03T19:28:12.160Z,98760.31
2023-05-03T19:30:46.225Z,98760.47
2023-05-03T19:33:20.370Z,98758.69
2023-05-03T19:35:54.427Z,98752.22
2023-05-03T19:38:28.372Z,98758.97
2023-05-03T19:41:05.928Z,98763.66
2023-05-03T19:44:00.214Z,98767.06
2023-05-03T19:46:33.692Z,98761.13
2023-05-03T19:49:07.527Z,98763.31
2023-05-03T19:51:39.475Z,98771.44
2023-05-03T19:54:12.947Z,98761.34
2023-05-03T19:56:45.305Z,98768.78
2023-05-03T19:59:18.634Z,98762.16
2023-05-03T20:01:51.079Z,98764.16
2023-05-03T20:04:24.887Z,98764.41
2023-05-03T20:06:57.414Z,98772.38
2023-05-03T20:09:30.547Z,98761.16
2023-05-03T20:12:03.541Z,98763.75
2023-05-03T20:14:36.418Z,98759.75
2023-05-03T20:17:08.373Z,98761.16
2023-05-03T20:19:41.457Z,98761.88
2023-05-03T20:22:13.414Z,98762.47
2023-05-03T20:24:46.933Z,98764.53
2023-05-03T20:27:18.956Z,98762.69
2023-05-03T20:29:52.146Z,98762.09
2023-05-03T20:32:26.492Z,98765.56
2023-05-03T20:34:59.707Z,98762.88
2023-05-03T20:37:31.879Z,98762.34
2023-05-03T20:40:06.117Z,98761.06
2023-05-03T20:42:39.066Z,98754.63
2023-05-03T20:45:11.915Z,98754.63
2023-05-03T20:47:44.648Z,98758.19
2023-05-03T20:50:17.042Z,98761.53
2023-05-03T20:52:50.521Z,98769.53
2023-05-03T20:55:23.107Z,98761.66
2023-05-03T20:57:56.098Z,98766.47
2023-05-03T21:00:28.849Z,98756.47
2023-05-03T21:03:25.857Z,98760.50
2023-05-03T21:05:58.180Z,98756.56
2023-05-03T21:08:30.931Z,98760.63
2023-05-03T21:11:04.167Z,98761.31
2023-05-03T21:13:36.608Z,98763.41
2023-05-03T21:16:09.277Z,98757.47
2023-05-03T21:18:42.152Z,98759.47
2023-05-03T21:21:14.597Z,98752.28
2023-05-03T21:23:47.658Z,98758.28
2023-05-03T21:26:19.744Z,98750.34
2023-05-03T21:28:52.933Z,98758.38
2023-05-03T21:31:25.297Z,98750.38
2023-05-03T21:33:58.638Z,98749.09
2023-05-03T21:36:32.561Z,98749.78
2023-05-03T21:39:05.445Z,98750.47
2023-05-03T21:41:38.457Z,98744.59
2023-05-03T21:44:12.368Z,98750.53
2023-05-03T21:46:44.763Z,98745.88
2023-05-03T21:49:17.678Z,98739.31
2023-05-03T21:51:49.563Z,98739.34
2023-05-03T21:54:22.261Z,98741.34
2023-05-03T21:56:54.152Z,98739.66
2023-05-03T21:59:26.872Z,98734.50
2023-05-03T22:01:59.480Z,98728.72
2023-05-03T22:04:31.976Z,98729.41
2023-05-03T22:07:04.755Z,98716.69
2023-05-03T22:09:37.252Z,98726.28
2023-05-03T22:12:22.719Z,98721.78
2023-05-03T22:14:56.216Z,98718.91
2023-05-03T22:17:29.221Z,98718.78
2023-05-03T22:20:01.121Z,98717.50
2023-05-03T22:22:34.473Z,98716.59
2023-05-03T22:25:06.921Z,98715.25
2023-05-03T22:27:39.666Z,98709.97
2023-05-03T22:30:25.834Z,98717.81
2023-05-03T22:33:01.684Z,98717.22
2023-05-03T22:35:33.977Z,98708.41
2023-05-03T22:38:28.254Z,98712.56
2023-05-03T22:41:00.985Z,98712.97
2023-05-03T22:43:33.936Z,98717.97
2023-05-03T22:46:06.172Z,98712.09
2023-05-03T22:48:39.046Z,98716.03
2023-05-03T22:51:11.674Z,98712.38
2023-05-03T22:53:44.015Z,98717.03
2023-05-03T22:56:17.009Z,98722.19
2023-05-03T22:58:49.807Z,98715.63
2023-05-03T23:01:22.210Z,98719.91
2023-05-03T23:03:54.478Z,98718.66
2023-05-03T23:06:27.282Z,98721.63
2023-05-03T23:09:01.005Z,98711.84
2023-05-03T23:11:33.766Z,98720.34
2023-05-03T23:14:06.482Z,98712.91
2023-05-03T23:16:39.318Z,98712.84
2023-05-03T23:19:11.828Z,98710.13
2023-05-03T23:21:44.624Z,98706.66
2023-05-03T23:24:17.401Z,98710.69
2023-05-03T23:26:50.573Z,98716.16
2023-05-03T23:29:23.366Z,98712.56
2023-05-03T23:31:56.802Z,98708.94
2023-05-03T23:34:29.294Z,98716.66
2023-05-03T23:37:02.045Z,98702.31
2023-05-03T23:39:34.688Z,98695.31
2023-05-03T23:42:07.038Z,98697.38
2023-05-03T23:44:53.816Z,98700.97
2023-05-03T23:47:27.992Z,98704.03
2023-05-03T23:49:59.988Z,98695.31
2023-05-03T23:52:32.803Z,98685.00
2023-05-03T23:55:06.323Z,98686.16
2023-05-03T23:57:38.752Z,98686.72
